KCPR/CPR METAR and TAF weather

Enter ICAO airport designator
Station Type Date Time Source
KCPR METAR 2018/01/19 22:53 UTC NOAA

KCPR 192253Z 22017KT 10SM CLR 09/M05 A2966 RMK AO2 PK WND 22028/2206 SLP021 T00941050


Station Type Date Time Source
KCPR Decoded METAR 2018/01/19 22:53 UTC NOAA

NATRONA COUNTY INTERNATIONAL AIRPORT , WY, United States (KCPR) 42-54N 106-28W 1621M
Jan 19, 2018 - 05:53 PM EST / 2018.01.19 2253 UTC
Wind: from the SW (220 degrees) at 20 MPH (17 KT):0
Visibility: 10 mile(s):0
Sky conditions: clear
Temperature: 48.9 F (9.4 C)
Dew Point: 23.0 F (-5.0 C)
Relative Humidity: 35%
Pressure (altimeter): 29.66 in. Hg (1004 hPa)
ob: KCPR 192253Z 22017KT 10SM CLR 09/M05 A2966 RMK AO2 PK WND 22028/2206 SLP021 T00941050
cycle: 23

Station Type Date Time Source
KCPR TAF 2018/01/19 18:40 UTC NOAA

TAF KCPR 191738Z 1918/2018 22017G27KT P6SM BKN250 WS015/22045KT
FM192100 21020KT P6SM SCT150 BKN250 WS012/22040KT
FM200100 25010KT P6SM BKN120
FM200700 01009KT P6SM SCT030 BKN100
FM201000 04009KT 6SM -SN OVC016
FM201500 04004KT 2SM -SN OVC010


Example: see airport list